sensor_id;sensor_type;location;lat;lon;timestamp;temperature;humidity
1381;DHT22;684;48.342;10.096;2023-03-12T00:01:38;1.70;20.70
1381;DHT22;684;48.342;10.096;2023-03-12T00:04:05;1.70;20.60
1381;DHT22;684;48.342;10.096;2023-03-12T00:06:31;1.70;20.70
1381;DHT22;684;48.342;10.096;2023-03-12T00:08:58;1.70;20.50
1381;DHT22;684;48.342;10.096;2023-03-12T00:11:26;1.70;20.40
1381;DHT22;684;48.342;10.096;2023-03-12T00:13:55;1.70;20.40
1381;DHT22;684;48.342;10.096;2023-03-12T00:16:23;1.70;20.50
1381;DHT22;684;48.342;10.096;2023-03-12T00:18:52;1.70;20.70
1381;DHT22;684;48.342;10.096;2023-03-12T00:21:19;1.60;20.90
1381;DHT22;684;48.342;10.096;2023-03-12T00:23:47;1.60;20.80
1381;DHT22;684;48.342;10.096;2023-03-12T00:26:14;1.60;20.80
1381;DHT22;684;48.342;10.096;2023-03-12T00:28:41;1.50;21.80
1381;DHT22;684;48.342;10.096;2023-03-12T00:31:16;1.50;21.20
1381;DHT22;684;48.342;10.096;2023-03-12T00:33:45;1.50;21.40
1381;DHT22;684;48.342;10.096;2023-03-12T00:36:13;1.50;21.30
1381;DHT22;684;48.342;10.096;2023-03-12T00:38:40;1.40;21.40
1381;DHT22;684;48.342;10.096;2023-03-12T00:41:07;1.40;21.50
1381;DHT22;684;48.342;10.096;2023-03-12T00:43:34;1.40;21.70
1381;DHT22;684;48.342;10.096;2023-03-12T00:46:01;1.40;21.70
1381;DHT22;684;48.342;10.096;2023-03-12T00:48:27;1.40;21.80
1381;DHT22;684;48.342;10.096;2023-03-12T00:50:55;1.30;22.10
1381;DHT22;684;48.342;10.096;2023-03-12T00:53:22;1.30;22.30
1381;DHT22;684;48.342;10.096;2023-03-12T00:55:49;1.30;22.20
1381;DHT22;684;48.342;10.096;2023-03-12T00:58:16;1.30;22.50
1381;DHT22;684;48.342;10.096;2023-03-12T01:00:42;1.30;22.40
1381;DHT22;684;48.342;10.096;2023-03-12T01:03:09;1.30;22.20
1381;DHT22;684;48.342;10.096;2023-03-12T01:05:36;1.30;22.40
1381;DHT22;684;48.342;10.096;2023-03-12T01:08:07;1.30;22.50
1381;DHT22;684;48.342;10.096;2023-03-12T01:10:34;1.30;22.50
1381;DHT22;684;48.342;10.096;2023-03-12T01:13:01;1.30;22.40
1381;DHT22;684;48.342;10.096;2023-03-12T01:15:28;1.30;22.60
1381;DHT22;684;48.342;10.096;2023-03-12T01:17:55;1.30;22.60
1381;DHT22;684;48.342;10.096;2023-03-12T01:20:22;1.30;22.60
1381;DHT22;684;48.342;10.096;2023-03-12T01:22:49;1.30;22.70
1381;DHT22;684;48.342;10.096;2023-03-12T01:25:17;1.30;22.60
1381;DHT22;684;48.342;10.096;2023-03-12T01:27:44;1.30;22.60
1381;DHT22;684;48.342;10.096;2023-03-12T01:30:11;1.30;22.60
1381;DHT22;684;48.342;10.096;2023-03-12T01:32:38;1.20;22.30
1381;DHT22;684;48.342;10.096;2023-03-12T01:35:06;1.30;22.40
1381;DHT22;684;48.342;10.096;2023-03-12T01:37:32;1.30;22.60
1381;DHT22;684;48.342;10.096;2023-03-12T01:39:59;1.20;22.90
1381;DHT22;684;48.342;10.096;2023-03-12T01:42:27;1.20;22.90
1381;DHT22;684;48.342;10.096;2023-03-12T01:44:55;1.20;23.60
1381;DHT22;684;48.342;10.096;2023-03-12T01:47:22;1.20;22.90
1381;DHT22;684;48.342;10.096;2023-03-12T01:49:51;1.20;23.00
1381;DHT22;684;48.342;10.096;2023-03-12T01:52:20;1.20;23.30
1381;DHT22;684;48.342;10.096;2023-03-12T01:54:50;1.20;23.50
1381;DHT22;684;48.342;10.096;2023-03-12T01:57:21;1.10;23.80
1381;DHT22;684;48.342;10.096;2023-03-12T01:59:53;1.10;24.20
1381;DHT22;684;48.342;10.096;2023-03-12T02:02:23;1.20;24.60
1381;DHT22;684;48.342;10.096;2023-03-12T02:04:58;1.10;25.00
1381;DHT22;684;48.342;10.096;2023-03-12T02:07:28;1.20;25.50
1381;DHT22;684;48.342;10.096;2023-03-12T02:09:55;1.20;25.70
1381;DHT22;684;48.342;10.096;2023-03-12T02:12:22;1.20;25.80
1381;DHT22;684;48.342;10.096;2023-03-12T02:14:50;1.20;25.90
1381;DHT22;684;48.342;10.096;2023-03-12T02:17:17;1.20;25.90
1381;DHT22;684;48.342;10.096;2023-03-12T02:19:49;1.20;26.10
1381;DHT22;684;48.342;10.096;2023-03-12T02:22:17;1.30;25.80
1381;DHT22;684;48.342;10.096;2023-03-12T02:24:47;1.30;25.50
1381;DHT22;684;48.342;10.096;2023-03-12T02:27:19;1.40;25.40
1381;DHT22;684;48.342;10.096;2023-03-12T02:29:46;1.40;25.10
1381;DHT22;684;48.342;10.096;2023-03-12T02:32:19;1.50;25.40
1381;DHT22;684;48.342;10.096;2023-03-12T02:34:46;1.50;25.20
1381;DHT22;684;48.342;10.096;2023-03-12T02:37:15;1.50;25.10
1381;DHT22;684;48.342;10.096;2023-03-12T02:39:43;1.60;25.10
1381;DHT22;684;48.342;10.096;2023-03-12T02:42:12;1.60;25.10
1381;DHT22;684;48.342;10.096;2023-03-12T02:44:41;1.60;25.20
1381;DHT22;684;48.342;10.096;2023-03-12T02:47:09;1.60;25.40
1381;DHT22;684;48.342;10.096;2023-03-12T02:49:35;1.60;25.20
1381;DHT22;684;48.342;10.096;2023-03-12T02:52:03;1.70;25.30
1381;DHT22;684;48.342;10.096;2023-03-12T02:54:29;1.70;25.30
1381;DHT22;684;48.342;10.096;2023-03-12T02:56:56;1.70;25.20
1381;DHT22;684;48.342;10.096;2023-03-12T02:59:24;1.70;25.30
1381;DHT22;684;48.342;10.096;2023-03-12T03:01:54;1.70;25.30
1381;DHT22;684;48.342;10.096;2023-03-12T03:04:22;1.70;25.20
1381;DHT22;684;48.342;10.096;2023-03-12T03:06:49;1.70;25.30
1381;DHT22;684;48.342;10.096;2023-03-12T03:09:16;1.80;25.50
1381;DHT22;684;48.342;10.096;2023-03-12T03:11:43;1.80;25.60
1381;DHT22;684;48.342;10.096;2023-03-12T03:14:10;1.80;25.50
1381;DHT22;684;48.342;10.096;2023-03-12T03:16:37;1.80;25.50
1381;DHT22;684;48.342;10.096;2023-03-12T03:19:05;1.80;25.70
1381;DHT22;684;48.342;10.096;2023-03-12T03:21:33;1.80;25.80
1381;DHT22;684;48.342;10.096;2023-03-12T03:24:00;1.80;25.80
1381;DHT22;684;48.342;10.096;2023-03-12T03:26:27;1.80;25.80
1381;DHT22;684;48.342;10.096;2023-03-12T03:28:53;1.90;25.90
1381;DHT22;684;48.342;10.096;2023-03-12T03:31:20;1.90;25.90
1381;DHT22;684;48.342;10.096;2023-03-12T03:33:48;1.90;26.00
1381;DHT22;684;48.342;10.096;2023-03-12T03:36:16;2.00;25.90
1381;DHT22;684;48.342;10.096;2023-03-12T03:38:43;1.90;25.90
1381;DHT22;684;48.342;10.096;2023-03-12T03:41:14;2.00;25.90
1381;DHT22;684;48.342;10.096;2023-03-12T03:43:40;2.00;25.90
1381;DHT22;684;48.342;10.096;2023-03-12T03:46:09;2.00;25.90
1381;DHT22;684;48.342;10.096;2023-03-12T03:48:36;2.00;26.00
1381;DHT22;684;48.342;10.096;2023-03-12T03:51:04;2.00;25.90
1381;DHT22;684;48.342;10.096;2023-03-12T03:53:33;2.00;25.80
1381;DHT22;684;48.342;10.096;2023-03-12T03:56:04;2.10;25.60
1381;DHT22;684;48.342;10.096;2023-03-12T03:58:31;2.10;25.30
1381;DHT22;684;48.342;10.096;2023-03-12T04:00:58;2.20;25.20
1381;DHT22;684;48.342;10.096;2023-03-12T04:03:24;2.20;24.30
1381;DHT22;684;48.342;10.096;2023-03-12T04:05:54;2.20;24.20
1381;DHT22;684;48.342;10.096;2023-03-12T04:08:20;2.20;24.40
1381;DHT22;684;48.342;10.096;2023-03-12T04:10:48;2.20;24.40
1381;DHT22;684;48.342;10.096;2023-03-12T04:13:15;2.30;24.20
1381;DHT22;684;48.342;10.096;2023-03-12T04:15:45;2.30;23.70
1381;DHT22;684;48.342;10.096;2023-03-12T04:18:12;2.30;23.60
1381;DHT22;684;48.342;10.096;2023-03-12T04:20:39;2.30;23.60
1381;DHT22;684;48.342;10.096;2023-03-12T04:23:05;2.30;23.80
1381;DHT22;684;48.342;10.096;2023-03-12T04:25:32;2.40;23.80
1381;DHT22;684;48.342;10.096;2023-03-12T04:28:00;2.30;23.90
1381;DHT22;684;48.342;10.096;2023-03-12T04:30:27;2.30;24.00
1381;DHT22;684;48.342;10.096;2023-03-12T04:32:54;2.30;24.20
1381;DHT22;684;48.342;10.096;2023-03-12T04:35:21;2.30;24.30
1381;DHT22;684;48.342;10.096;2023-03-12T04:37:49;2.30;24.60
1381;DHT22;684;48.342;10.096;2023-03-12T04:40:16;2.30;24.60
1381;DHT22;684;48.342;10.096;2023-03-12T04:42:44;2.40;24.20
1381;DHT22;684;48.342;10.096;2023-03-12T04:45:13;2.40;24.50
1381;DHT22;684;48.342;10.096;2023-03-12T04:47:40;2.40;24.60
1381;DHT22;684;48.342;10.096;2023-03-12T04:50:07;2.40;24.30
1381;DHT22;684;48.342;10.096;2023-03-12T04:52:34;2.40;24.10
1381;DHT22;684;48.342;10.096;2023-03-12T04:55:01;2.40;24.00
1381;DHT22;684;48.342;10.096;2023-03-12T04:57:28;2.50;24.20
1381;DHT22;684;48.342;10.096;2023-03-12T04:59:55;2.50;24.20
1381;DHT22;684;48.342;10.096;2023-03-12T05:02:23;2.50;24.20
1381;DHT22;684;48.342;10.096;2023-03-12T05:04:49;2.50;24.40
1381;DHT22;684;48.342;10.096;2023-03-12T05:07:16;2.50;24.50
1381;DHT22;684;48.342;10.096;2023-03-12T05:09:44;2.50;24.90
1381;DHT22;684;48.342;10.096;2023-03-12T05:12:11;2.60;24.80
1381;DHT22;684;48.342;10.096;2023-03-12T05:14:38;2.60;24.60
1381;DHT22;684;48.342;10.096;2023-03-12T05:17:05;2.60;24.50
1381;DHT22;684;48.342;10.096;2023-03-12T05:19:33;2.60;24.70
1381;DHT22;684;48.342;10.096;2023-03-12T05:21:59;2.60;24.60
1381;DHT22;684;48.342;10.096;2023-03-12T05:24:27;2.70;24.70
1381;DHT22;684;48.342;10.096;2023-03-12T05:26:53;2.70;24.90
1381;DHT22;684;48.342;10.096;2023-03-12T05:29:20;2.70;24.90
1381;DHT22;684;48.342;10.096;2023-03-12T05:31:47;2.70;24.90
1381;DHT22;684;48.342;10.096;2023-03-12T05:34:14;2.70;25.00
1381;DHT22;684;48.342;10.096;2023-03-12T05:36:43;2.70;25.30
1381;DHT22;684;48.342;10.096;2023-03-12T05:39:09;2.70;25.10
1381;DHT22;684;48.342;10.096;2023-03-12T05:41:36;2.80;25.30
1381;DHT22;684;48.342;10.096;2023-03-12T05:44:03;2.80;25.20
1381;DHT22;684;48.342;10.096;2023-03-12T05:46:30;2.80;25.10
1381;DHT22;684;48.342;10.096;2023-03-12T05:48:57;2.80;25.30
1381;DHT22;684;48.342;10.096;2023-03-12T05:51:24;2.80;24.80
1381;DHT22;684;48.342;10.096;2023-03-12T05:53:52;2.80;25.40
1381;DHT22;684;48.342;10.096;2023-03-12T05:56:18;2.90;25.50
1381;DHT22;684;48.342;10.096;2023-03-12T05:58:47;2.90;25.70
1381;DHT22;684;48.342;10.096;2023-03-12T06:01:16;2.90;25.90
1381;DHT22;684;48.342;10.096;2023-03-12T06:03:43;3.00;25.90
1381;DHT22;684;48.342;10.096;2023-03-12T06:06:10;3.00;26.10
1381;DHT22;684;48.342;10.096;2023-03-12T06:08:37;3.00;26.20
1381;DHT22;684;48.342;10.096;2023-03-12T06:11:06;3.10;26.60
1381;DHT22;684;48.342;10.096;2023-03-12T06:13:33;3.10;26.50
1381;DHT22;684;48.342;10.096;2023-03-12T06:16:03;3.20;26.60
1381;DHT22;684;48.342;10.096;2023-03-12T06:18:30;3.20;26.70
1381;DHT22;684;48.342;10.096;2023-03-12T06:21:08;3.30;26.80
1381;DHT22;684;48.342;10.096;2023-03-12T06:23:36;3.30;26.90
1381;DHT22;684;48.342;10.096;2023-03-12T06:26:03;3.40;26.70
1381;DHT22;684;48.342;10.096;2023-03-12T06:28:32;3.50;26.80
1381;DHT22;684;48.342;10.096;2023-03-12T06:30:59;3.50;26.90
1381;DHT22;684;48.342;10.096;2023-03-12T06:33:26;3.50;26.80
1381;DHT22;684;48.342;10.096;2023-03-12T06:35:53;3.50;26.60
1381;DHT22;684;48.342;10.096;2023-03-12T06:38:21;3.60;26.50
1381;DHT22;684;48.342;10.096;2023-03-12T06:40:55;3.70;26.30
1381;DHT22;684;48.342;10.096;2023-03-12T06:43:22;3.70;26.00
1381;DHT22;684;48.342;10.096;2023-03-12T06:45:53;3.70;25.80
1381;DHT22;684;48.342;10.096;2023-03-12T06:48:20;3.80;25.70
1381;DHT22;684;48.342;10.096;2023-03-12T06:50:46;3.80;25.70
1381;DHT22;684;48.342;10.096;2023-03-12T06:53:13;3.80;25.70
1381;DHT22;684;48.342;10.096;2023-03-12T06:55:40;3.90;25.70
1381;DHT22;684;48.342;10.096;2023-03-12T06:58:08;4.00;25.80
1381;DHT22;684;48.342;10.096;2023-03-12T07:00:35;3.90;26.60
1381;DHT22;684;48.342;10.096;2023-03-12T07:03:03;3.90;26.20
1381;DHT22;684;48.342;10.096;2023-03-12T07:05:30;3.90;26.30
1381;DHT22;684;48.342;10.096;2023-03-12T07:07:57;3.90;26.70
1381;DHT22;684;48.342;10.096;2023-03-12T07:10:24;4.00;26.40
1381;DHT22;684;48.342;10.096;2023-03-12T07:12:52;4.00;26.50
1381;DHT22;684;48.342;10.096;2023-03-12T07:15:19;4.10;26.60
1381;DHT22;684;48.342;10.096;2023-03-12T07:17:46;4.10;26.50
1381;DHT22;684;48.342;10.096;2023-03-12T07:20:14;4.10;26.60
1381;DHT22;684;48.342;10.096;2023-03-12T07:22:41;4.20;26.80
1381;DHT22;684;48.342;10.096;2023-03-12T07:25:08;4.30;26.90
1381;DHT22;684;48.342;10.096;2023-03-12T07:27:35;4.40;27.80
1381;DHT22;684;48.342;10.096;2023-03-12T07:30:02;4.50;27.50
1381;DHT22;684;48.342;10.096;2023-03-12T07:32:29;4.50;28.10
1381;DHT22;684;48.342;10.096;2023-03-12T07:34:57;4.70;28.50
1381;DHT22;684;48.342;10.096;2023-03-12T07:37:26;4.80;28.70
1381;DHT22;684;48.342;10.096;2023-03-12T07:39:52;4.80;29.20
1381;DHT22;684;48.342;10.096;2023-03-12T07:42:20;4.80;29.20
1381;DHT22;684;48.342;10.096;2023-03-12T07:44:47;4.80;29.50
1381;DHT22;684;48.342;10.096;2023-03-12T07:47:14;4.90;29.20
1381;DHT22;684;48.342;10.096;2023-03-12T07:49:41;5.00;28.80
1381;DHT22;684;48.342;10.096;2023-03-12T07:52:07;5.10;29.40
1381;DHT22;684;48.342;10.096;2023-03-12T07:54:37;5.10;28.90
1381;DHT22;684;48.342;10.096;2023-03-12T07:57:04;5.10;29.10
1381;DHT22;684;48.342;10.096;2023-03-12T07:59:31;5.20;29.40
1381;DHT22;684;48.342;10.096;2023-03-12T08:01:58;5.10;29.50
1381;DHT22;684;48.342;10.096;2023-03-12T08:04:25;5.20;29.20
1381;DHT22;684;48.342;10.096;2023-03-12T08:06:52;5.30;29.60
1381;DHT22;684;48.342;10.096;2023-03-12T08:09:18;5.40;29.50
1381;DHT22;684;48.342;10.096;2023-03-12T08:11:47;5.50;29.40
1381;DHT22;684;48.342;10.096;2023-03-12T08:14:14;5.60;29.30
1381;DHT22;684;48.342;10.096;2023-03-12T08:16:41;5.60;29.90
1381;DHT22;684;48.342;10.096;2023-03-12T08:19:07;5.70;29.50
1381;DHT22;684;48.342;10.096;2023-03-12T08:21:34;5.70;29.40
1381;DHT22;684;48.342;10.096;2023-03-12T08:24:01;5.70;29.20
1381;DHT22;684;48.342;10.096;2023-03-12T08:26:27;5.80;29.30
1381;DHT22;684;48.342;10.096;2023-03-12T08:28:56;5.80;29.40
1381;DHT22;684;48.342;10.096;2023-03-12T08:31:24;5.90;29.60
1381;DHT22;684;48.342;10.096;2023-03-12T08:33:51;6.00;29.40
1381;DHT22;684;48.342;10.096;2023-03-12T08:36:18;6.10;29.70
1381;DHT22;684;48.342;10.096;2023-03-12T08:38:45;6.20;29.80
1381;DHT22;684;48.342;10.096;2023-03-12T08:41:11;6.30;30.00
1381;DHT22;684;48.342;10.096;2023-03-12T08:43:38;6.40;30.40
1381;DHT22;684;48.342;10.096;2023-03-12T08:46:06;6.50;31.30
1381;DHT22;684;48.342;10.096;2023-03-12T08:48:34;6.50;31.00
1381;DHT22;684;48.342;10.096;2023-03-12T08:51:02;6.70;31.10
1381;DHT22;684;48.342;10.096;2023-03-12T08:53:31;6.90;30.60
1381;DHT22;684;48.342;10.096;2023-03-12T08:55:58;7.20;30.50
1381;DHT22;684;48.342;10.096;2023-03-12T08:58:28;7.30;30.30
1381;DHT22;684;48.342;10.096;2023-03-12T09:00:55;7.50;29.40
1381;DHT22;684;48.342;10.096;2023-03-12T09:03:24;7.60;29.20
1381;DHT22;684;48.342;10.096;2023-03-12T09:06:01;7.60;28.60
1381;DHT22;684;48.342;10.096;2023-03-12T09:08:28;7.70;28.40
1381;DHT22;684;48.342;10.096;2023-03-12T09:10:55;7.70;28.60
1381;DHT22;684;48.342;10.096;2023-03-12T09:13:22;7.80;28.50
1381;DHT22;684;48.342;10.096;2023-03-12T09:15:48;7.70;28.60
1381;DHT22;684;48.342;10.096;2023-03-12T09:18:15;7.70;28.50
1381;DHT22;684;48.342;10.096;2023-03-12T09:20:45;7.70;28.20
1381;DHT22;684;48.342;10.096;2023-03-12T09:23:12;7.80;28.00
1381;DHT22;684;48.342;10.096;2023-03-12T09:25:39;7.90;28.50
1381;DHT22;684;48.342;10.096;2023-03-12T09:28:05;8.10;27.70
1381;DHT22;684;48.342;10.096;2023-03-12T09:30:32;8.30;28.00
1381;DHT22;684;48.342;10.096;2023-03-12T09:32:59;8.60;28.70
1381;DHT22;684;48.342;10.096;2023-03-12T09:35:25;9.60;27.80
1381;DHT22;684;48.342;10.096;2023-03-12T09:37:54;10.00;24.90
1381;DHT22;684;48.342;10.096;2023-03-12T09:40:23;9.90;24.20
1381;DHT22;684;48.342;10.096;2023-03-12T09:42:52;9.80;24.20
1381;DHT22;684;48.342;10.096;2023-03-12T09:45:23;9.70;24.10
1381;DHT22;684;48.342;10.096;2023-03-12T09:47:52;9.60;24.30
1381;DHT22;684;48.342;10.096;2023-03-12T09:50:24;9.60;24.00
1381;DHT22;684;48.342;10.096;2023-03-12T09:52:57;9.40;24.30
1381;DHT22;684;48.342;10.096;2023-03-12T09:55:25;9.40;25.10
1381;DHT22;684;48.342;10.096;2023-03-12T09:57:53;9.20;25.20
1381;DHT22;684;48.342;10.096;2023-03-12T10:00:22;9.10;25.90
1381;DHT22;684;48.342;10.096;2023-03-12T10:03:15;9.20;26.40
1381;DHT22;684;48.342;10.096;2023-03-12T10:05:58;9.20;26.70
1381;DHT22;684;48.342;10.096;2023-03-12T10:08:37;9.20;26.40
1381;DHT22;684;48.342;10.096;2023-03-12T10:11:17;9.10;26.90
1381;DHT22;684;48.342;10.096;2023-03-12T10:13:57;9.20;27.00
1381;DHT22;684;48.342;10.096;2023-03-12T10:16:36;9.20;27.20
1381;DHT22;684;48.342;10.096;2023-03-12T10:19:17;9.30;27.50
1381;DHT22;684;48.342;10.096;2023-03-12T10:21:51;9.40;27.70
1381;DHT22;684;48.342;10.096;2023-03-12T10:24:34;9.50;27.40
1381;DHT22;684;48.342;10.096;2023-03-12T10:27:08;9.50;27.30
1381;DHT22;684;48.342;10.096;2023-03-12T10:29:40;9.50;27.60
1381;DHT22;684;48.342;10.096;2023-03-12T10:32:12;9.60;27.60
1381;DHT22;684;48.342;10.096;2023-03-12T10:34:44;9.70;27.70
1381;DHT22;684;48.342;10.096;2023-03-12T10:37:16;9.90;27.60
1381;DHT22;684;48.342;10.096;2023-03-12T10:39:45;10.00;27.70
1381;DHT22;684;48.342;10.096;2023-03-12T10:42:15;10.10;27.60
1381;DHT22;684;48.342;10.096;2023-03-12T10:44:42;10.20;27.60
1381;DHT22;684;48.342;10.096;2023-03-12T10:47:22;10.10;27.90
1381;DHT22;684;48.342;10.096;2023-03-12T10:49:51;10.20;28.20
1381;DHT22;684;48.342;10.096;2023-03-12T10:52:20;10.10;28.70
1381;DHT22;684;48.342;10.096;2023-03-12T10:54:49;10.10;29.70
1381;DHT22;684;48.342;10.096;2023-03-12T10:57:17;10.10;29.90
1381;DHT22;684;48.342;10.096;2023-03-12T10:59:47;10.00;30.20
1381;DHT22;684;48.342;10.096;2023-03-12T11:02:36;9.90;30.40
1381;DHT22;684;48.342;10.096;2023-03-12T11:05:19;10.00;31.00
1381;DHT22;684;48.342;10.096;2023-03-12T11:07:47;10.10;31.00
1381;DHT22;684;48.342;10.096;2023-03-12T11:10:21;10.30;31.30
1381;DHT22;684;48.342;10.096;2023-03-12T11:12:57;10.50;30.40
1381;DHT22;684;48.342;10.096;2023-03-12T11:15:26;10.70;30.00
1381;DHT22;684;48.342;10.096;2023-03-12T11:18:18;10.90;29.60
1381;DHT22;684;48.342;10.096;2023-03-12T11:20:46;11.00;28.90
1381;DHT22;684;48.342;10.096;2023-03-12T11:23:15;11.20;28.70
1381;DHT22;684;48.342;10.096;2023-03-12T11:25:50;11.30;28.10
1381;DHT22;684;48.342;10.096;2023-03-12T11:28:22;11.30;27.90
1381;DHT22;684;48.342;10.096;2023-03-12T11:30:51;11.30;27.70
1381;DHT22;684;48.342;10.096;2023-03-12T11:33:19;11.30;27.50
1381;DHT22;684;48.342;10.096;2023-03-12T11:35:56;11.30;27.70
1381;DHT22;684;48.342;10.096;2023-03-12T11:38:30;11.30;27.70
1381;DHT22;684;48.342;10.096;2023-03-12T11:41:09;11.30;27.50
1381;DHT22;684;48.342;10.096;2023-03-12T11:43:55;11.30;27.70
1381;DHT22;684;48.342;10.096;2023-03-12T11:46:35;11.30;27.80
1381;DHT22;684;48.342;10.096;2023-03-12T11:49:16;11.40;27.90
1381;DHT22;684;48.342;10.096;2023-03-12T11:51:52;11.50;27.90
1381;DHT22;684;48.342;10.096;2023-03-12T11:54:47;11.50;27.60
1381;DHT22;684;48.342;10.096;2023-03-12T11:57:27;11.60;27.60
1381;DHT22;684;48.342;10.096;2023-03-12T12:00:02;11.60;27.40
1381;DHT22;684;48.342;10.096;2023-03-12T12:03:04;11.70;27.70
1381;DHT22;684;48.342;10.096;2023-03-12T12:05:43;11.90;27.60
1381;DHT22;684;48.342;10.096;2023-03-12T12:08:31;12.20;27.50
1381;DHT22;684;48.342;10.096;2023-03-12T12:11:06;12.60;26.20
1381;DHT22;684;48.342;10.096;2023-03-12T12:13:45;12.90;25.40
1381;DHT22;684;48.342;10.096;2023-03-12T12:16:25;13.20;24.10
1381;DHT22;684;48.342;10.096;2023-03-12T12:19:03;13.20;22.50
1381;DHT22;684;48.342;10.096;2023-03-12T12:21:43;13.40;22.40
1381;DHT22;684;48.342;10.096;2023-03-12T12:24:24;13.40;21.30
1381;DHT22;684;48.342;10.096;2023-03-12T12:26:57;13.40;20.90
1381;DHT22;684;48.342;10.096;2023-03-12T12:29:47;13.20;20.80
1381;DHT22;684;48.342;10.096;2023-03-12T12:32:25;13.20;20.70
1381;DHT22;684;48.342;10.096;2023-03-12T12:35:13;13.00;21.00
1381;DHT22;684;48.342;10.096;2023-03-12T12:37:49;13.00;21.10
1381;DHT22;684;48.342;10.096;2023-03-12T12:40:20;12.90;21.50
1381;DHT22;684;48.342;10.096;2023-03-12T12:42:57;13.00;22.40
1381;DHT22;684;48.342;10.096;2023-03-12T12:45:27;13.10;22.00
1381;DHT22;684;48.342;10.096;2023-03-12T12:47:57;13.10;21.70
1381;DHT22;684;48.342;10.096;2023-03-12T12:50:29;12.90;21.60
1381;DHT22;684;48.342;10.096;2023-03-12T12:53:03;12.80;22.00
1381;DHT22;684;48.342;10.096;2023-03-12T12:55:32;12.70;22.50
1381;DHT22;684;48.342;10.096;2023-03-12T12:58:03;12.60;22.90
1381;DHT22;684;48.342;10.096;2023-03-12T13:00:44;12.50;23.40
1381;DHT22;684;48.342;10.096;2023-03-12T13:03:15;12.50;24.00
1381;DHT22;684;48.342;10.096;2023-03-12T13:05:46;12.40;23.80
1381;DHT22;684;48.342;10.096;2023-03-12T13:08:34;12.30;24.10
1381;DHT22;684;48.342;10.096;2023-03-12T13:11:04;12.20;24.90
1381;DHT22;684;48.342;10.096;2023-03-12T13:13:31;12.40;25.00
1381;DHT22;684;48.342;10.096;2023-03-12T13:16:29;12.50;24.70
1381;DHT22;684;48.342;10.096;2023-03-12T13:18:58;12.60;24.30
1381;DHT22;684;48.342;10.096;2023-03-12T13:21:29;12.60;24.10
1381;DHT22;684;48.342;10.096;2023-03-12T13:24:14;12.60;24.10
1381;DHT22;684;48.342;10.096;2023-03-12T13:26:51;12.60;23.80
1381;DHT22;684;48.342;10.096;2023-03-12T13:29:22;12.50;23.70
1381;DHT22;684;48.342;10.096;2023-03-12T13:31:50;12.50;23.60
1381;DHT22;684;48.342;10.096;2023-03-12T13:34:41;12.50;23.30
1381;DHT22;684;48.342;10.096;2023-03-12T13:43:53;12.50;22.90
1381;DHT22;684;48.342;10.096;2023-03-12T13:49:19;12.40;23.10
1381;DHT22;684;48.342;10.096;2023-03-12T13:51:54;12.40;23.30
1381;DHT22;684;48.342;10.096;2023-03-12T13:54:26;12.40;23.30
1381;DHT22;684;48.342;10.096;2023-03-12T13:56:56;12.40;22.90
1381;DHT22;684;48.342;10.096;2023-03-12T13:59:25;12.30;23.00
1381;DHT22;684;48.342;10.096;2023-03-12T14:01:55;12.20;22.90
1381;DHT22;684;48.342;10.096;2023-03-12T14:04:29;12.10;23.20
1381;DHT22;684;48.342;10.096;2023-03-12T14:07:12;12.10;23.60
1381;DHT22;684;48.342;10.096;2023-03-12T14:09:46;12.00;24.00
1381;DHT22;684;48.342;10.096;2023-03-12T14:12:22;12.10;24.20
1381;DHT22;684;48.342;10.096;2023-03-12T14:15:15;12.10;24.00
1381;DHT22;684;48.342;10.096;2023-03-12T14:17:44;12.20;24.00
1381;DHT22;684;48.342;10.096;2023-03-12T14:20:15;12.30;23.50
1381;DHT22;684;48.342;10.096;2023-03-12T14:22:45;12.30;23.10
1381;DHT22;684;48.342;10.096;2023-03-12T14:25:20;12.40;22.90
1381;DHT22;684;48.342;10.096;2023-03-12T14:27:47;12.40;22.70
1381;DHT22;684;48.342;10.096;2023-03-12T14:30:20;12.40;22.60
1381;DHT22;684;48.342;10.096;2023-03-12T14:32:48;12.40;22.70
1381;DHT22;684;48.342;10.096;2023-03-12T14:35:20;12.30;22.50
1381;DHT22;684;48.342;10.096;2023-03-12T14:37:53;12.30;22.80
1381;DHT22;684;48.342;10.096;2023-03-12T14:40:24;12.30;22.90
1381;DHT22;684;48.342;10.096;2023-03-12T14:42:58;12.40;23.00
1381;DHT22;684;48.342;10.096;2023-03-12T14:45:25;12.40;23.10
1381;DHT22;684;48.342;10.096;2023-03-12T14:47:54;12.30;23.10
1381;DHT22;684;48.342;10.096;2023-03-12T14:50:25;12.30;23.20
1381;DHT22;684;48.342;10.096;2023-03-12T14:52:53;12.20;23.40
1381;DHT22;684;48.342;10.096;2023-03-12T14:55:22;12.10;23.50
1381;DHT22;684;48.342;10.096;2023-03-12T14:58:03;12.10;23.60
1381;DHT22;684;48.342;10.096;2023-03-12T15:00:30;12.10;23.90
1381;DHT22;684;48.342;10.096;2023-03-12T15:02:59;12.10;24.00
1381;DHT22;684;48.342;10.096;2023-03-12T15:05:30;12.00;24.40
1381;DHT22;684;48.342;10.096;2023-03-12T15:08:01;12.00;24.60
1381;DHT22;684;48.342;10.096;2023-03-12T15:10:30;12.00;24.50
1381;DHT22;684;48.342;10.096;2023-03-12T15:12:58;12.00;24.90
1381;DHT22;684;48.342;10.096;2023-03-12T15:15:34;12.00;25.10
1381;DHT22;684;48.342;10.096;2023-03-12T15:18:04;12.00;25.40
1381;DHT22;684;48.342;10.096;2023-03-12T15:20:34;12.10;25.30
1381;DHT22;684;48.342;10.096;2023-03-12T15:23:01;12.10;25.00
1381;DHT22;684;48.342;10.096;2023-03-12T15:25:30;12.10;24.40
1381;DHT22;684;48.342;10.096;2023-03-12T15:28:04;12.10;24.50
1381;DHT22;684;48.342;10.096;2023-03-12T15:30:32;12.10;24.60
1381;DHT22;684;48.342;10.096;2023-03-12T15:33:08;12.10;24.60
1381;DHT22;684;48.342;10.096;2023-03-12T15:35:37;12.10;24.70
1381;DHT22;684;48.342;10.096;2023-03-12T15:38:11;12.10;24.30
1381;DHT22;684;48.342;10.096;2023-03-12T15:40:39;12.10;24.00
1381;DHT22;684;48.342;10.096;2023-03-12T15:43:13;12.10;24.30
1381;DHT22;684;48.342;10.096;2023-03-12T15:45:41;12.10;24.30
1381;DHT22;684;48.342;10.096;2023-03-12T15:48:18;12.00;24.30
1381;DHT22;684;48.342;10.096;2023-03-12T15:50:48;11.90;24.60
1381;DHT22;684;48.342;10.096;2023-03-12T15:53:26;11.80;24.80
1381;DHT22;684;48.342;10.096;2023-03-12T15:55:59;11.80;25.00
1381;DHT22;684;48.342;10.096;2023-03-12T15:58:28;11.80;25.10
1381;DHT22;684;48.342;10.096;2023-03-12T16:01:05;11.80;25.20
1381;DHT22;684;48.342;10.096;2023-03-12T16:03:32;11.80;25.30
1381;DHT22;684;48.342;10.096;2023-03-12T16:06:01;11.70;25.40
1381;DHT22;684;48.342;10.096;2023-03-12T16:08:35;11.70;25.60
1381;DHT22;684;48.342;10.096;2023-03-12T16:11:02;11.70;25.80
1381;DHT22;684;48.342;10.096;2023-03-12T16:13:30;11.60;25.30
1381;DHT22;684;48.342;10.096;2023-03-12T16:15:58;11.70;24.70
1381;DHT22;684;48.342;10.096;2023-03-12T16:18:25;11.60;24.40
1381;DHT22;684;48.342;10.096;2023-03-12T16:20:52;11.50;24.20
1381;DHT22;684;48.342;10.096;2023-03-12T16:23:20;11.50;24.30
1381;DHT22;684;48.342;10.096;2023-03-12T16:25:49;11.50;24.20
1381;DHT22;684;48.342;10.096;2023-03-12T16:28:18;11.50;24.20
1381;DHT22;684;48.342;10.096;2023-03-12T16:30:46;11.40;24.10
1381;DHT22;684;48.342;10.096;2023-03-12T16:33:15;11.40;24.00
1381;DHT22;684;48.342;10.096;2023-03-12T16:35:42;11.30;24.00
1381;DHT22;684;48.342;10.096;2023-03-12T16:38:09;11.30;24.20
1381;DHT22;684;48.342;10.096;2023-03-12T16:40:39;11.20;24.30